sensor_id;sensor_type;location;lat;lon;timestamp;pressure;altitude;pressure_sealevel;temperature;humidity
64908;BME280;69061;52.236;5.188;2024-01-06T00:00:44;100381.94;;;9.65;93.18
64908;BME280;69061;52.236;5.188;2024-01-06T00:03:11;100397.50;;;9.66;93.51
64908;BME280;69061;52.236;5.188;2024-01-06T00:05:38;100394.78;;;9.59;92.16
64908;BME280;69061;52.236;5.188;2024-01-06T00:08:07;100403.44;;;9.52;91.84
64908;BME280;69061;52.236;5.188;2024-01-06T00:10:34;100397.75;;;9.50;92.12
64908;BME280;69061;52.236;5.188;2024-01-06T00:13:00;100392.81;;;9.49;92.14
64908;BME280;69061;52.236;5.188;2024-01-06T00:15:27;100395.03;;;9.47;92.60
64908;BME280;69061;52.236;5.188;2024-01-06T00:17:55;100403.00;;;9.47;91.35
64908;BME280;69061;52.236;5.188;2024-01-06T00:20:21;100403.41;;;9.49;91.46
64908;BME280;69061;52.236;5.188;2024-01-06T00:22:48;100405.69;;;9.50;91.05
64908;BME280;69061;52.236;5.188;2024-01-06T00:25:14;100407.19;;;9.48;90.46
64908;BME280;69061;52.236;5.188;2024-01-06T00:27:41;100404.91;;;9.50;90.77
64908;BME280;69061;52.236;5.188;2024-01-06T00:30:08;100405.66;;;9.47;90.20
64908;BME280;69061;52.236;5.188;2024-01-06T00:32:34;100406.03;;;9.45;90.11
64908;BME280;69061;52.236;5.188;2024-01-06T00:35:03;100418.50;;;9.41;89.98
64908;BME280;69061;52.236;5.188;2024-01-06T00:37:30;100413.97;;;9.45;90.51
64908;BME280;69061;52.236;5.188;2024-01-06T00:39:57;100404.84;;;9.42;90.48
64908;BME280;69061;52.236;5.188;2024-01-06T00:42:23;100420.81;;;9.46;91.12
64908;BME280;69061;52.236;5.188;2024-01-06T00:44:50;100424.19;;;9.43;91.34
64908;BME280;69061;52.236;5.188;2024-01-06T00:47:17;100421.09;;;9.37;90.46
64908;BME280;69061;52.236;5.188;2024-01-06T00:49:43;100427.94;;;9.38;90.85
64908;BME280;69061;52.236;5.188;2024-01-06T00:52:12;100430.59;;;9.38;91.11
64908;BME280;69061;52.236;5.188;2024-01-06T00:54:38;100427.09;;;9.31;91.49
64908;BME280;69061;52.236;5.188;2024-01-06T00:57:05;100433.56;;;9.33;92.64
64908;BME280;69061;52.236;5.188;2024-01-06T00:59:32;100432.44;;;9.34;91.92
64908;BME280;69061;52.236;5.188;2024-01-06T01:01:58;100431.31;;;9.35;91.78
64908;BME280;69061;52.236;5.188;2024-01-06T01:04:25;100440.03;;;9.36;91.87
64908;BME280;69061;52.236;5.188;2024-01-06T01:06:51;100436.63;;;9.35;92.14
64908;BME280;69061;52.236;5.188;2024-01-06T01:09:19;100441.88;;;9.32;91.07
64908;BME280;69061;52.236;5.188;2024-01-06T01:11:46;100442.25;;;9.30;91.89
64908;BME280;69061;52.236;5.188;2024-01-06T01:14:12;100451.75;;;9.31;91.92
64908;BME280;69061;52.236;5.188;2024-01-06T01:16:39;100460.81;;;9.30;91.18
64908;BME280;69061;52.236;5.188;2024-01-06T01:19:05;100468.34;;;9.28;90.69
64908;BME280;69061;52.236;5.188;2024-01-06T01:21:31;100472.91;;;9.27;92.48
64908;BME280;69061;52.236;5.188;2024-01-06T01:23:58;100471.00;;;9.28;91.43
64908;BME280;69061;52.236;5.188;2024-01-06T01:26:26;100482.72;;;9.23;91.87
64908;BME280;69061;52.236;5.188;2024-01-06T01:28:52;100478.88;;;9.21;91.38
64908;BME280;69061;52.236;5.188;2024-01-06T01:31:19;100490.22;;;9.18;90.41
64908;BME280;69061;52.236;5.188;2024-01-06T01:33:46;100486.66;;;9.06;90.11
64908;BME280;69061;52.236;5.188;2024-01-06T01:36:12;100494.63;;;9.06;90.78
64908;BME280;69061;52.236;5.188;2024-01-06T01:38:39;100487.44;;;9.07;91.22
64908;BME280;69061;52.236;5.188;2024-01-06T01:41:05;100498.84;;;9.11;92.03
64908;BME280;69061;52.236;5.188;2024-01-06T01:43:33;100490.13;;;9.10;91.31
64908;BME280;69061;52.236;5.188;2024-01-06T01:46:00;100501.50;;;9.11;91.51
64908;BME280;69061;52.236;5.188;2024-01-06T01:48:27;100504.53;;;9.09;91.10
64908;BME280;69061;52.236;5.188;2024-01-06T01:50:54;100506.81;;;9.11;91.96
64908;BME280;69061;52.236;5.188;2024-01-06T01:53:21;100515.94;;;9.14;91.16
64908;BME280;69061;52.236;5.188;2024-01-06T01:55:49;100517.41;;;9.11;91.21
64908;BME280;69061;52.236;5.188;2024-01-06T01:58:16;100518.13;;;9.08;91.32
64908;BME280;69061;52.236;5.188;2024-01-06T02:00:44;100524.13;;;9.05;89.30
64908;BME280;69061;52.236;5.188;2024-01-06T02:03:13;100534.78;;;9.08;90.36
64908;BME280;69061;52.236;5.188;2024-01-06T02:05:40;100532.91;;;9.09;90.50
64908;BME280;69061;52.236;5.188;2024-01-06T02:08:07;100533.31;;;9.11;91.77
64908;BME280;69061;52.236;5.188;2024-01-06T02:10:34;100540.53;;;9.14;91.46
64908;BME280;69061;52.236;5.188;2024-01-06T02:13:08;100536.34;;;9.13;89.55
64908;BME280;69061;52.236;5.188;2024-01-06T02:15:36;100540.53;;;9.14;91.13
64908;BME280;69061;52.236;5.188;2024-01-06T02:18:05;100541.31;;;9.15;90.77
64908;BME280;69061;52.236;5.188;2024-01-06T02:20:31;100557.19;;;9.11;92.28
64908;BME280;69061;52.236;5.188;2024-01-06T02:23:00;100548.09;;;9.12;92.16
64908;BME280;69061;52.236;5.188;2024-01-06T02:25:26;100550.41;;;9.14;91.88
64908;BME280;69061;52.236;5.188;2024-01-06T02:27:54;100551.50;;;9.13;91.67
64908;BME280;69061;52.236;5.188;2024-01-06T02:30:21;100563.59;;;9.10;90.52
64908;BME280;69061;52.236;5.188;2024-01-06T02:32:47;100555.25;;;9.08;91.30
64908;BME280;69061;52.236;5.188;2024-01-06T02:35:14;100570.75;;;9.06;90.36
64908;BME280;69061;52.236;5.188;2024-01-06T02:37:41;100564.25;;;9.03;91.39
64908;BME280;69061;52.236;5.188;2024-01-06T02:40:11;100574.06;;;8.99;91.50
64908;BME280;69061;52.236;5.188;2024-01-06T02:42:37;100574.41;;;8.98;91.29
64908;BME280;69061;52.236;5.188;2024-01-06T02:45:06;100574.00;;;8.96;91.71
64908;BME280;69061;52.236;5.188;2024-01-06T02:47:33;100567.19;;;8.95;91.62
64908;BME280;69061;52.236;5.188;2024-01-06T02:49:59;100584.50;;;8.88;90.52
64908;BME280;69061;52.236;5.188;2024-01-06T02:52:26;100584.09;;;8.86;91.02
64908;BME280;69061;52.236;5.188;2024-01-06T02:54:53;100590.53;;;8.85;92.27
64908;BME280;69061;52.236;5.188;2024-01-06T02:57:21;100592.81;;;8.87;91.96
64908;BME280;69061;52.236;5.188;2024-01-06T02:59:47;100598.13;;;8.87;91.06
64908;BME280;69061;52.236;5.188;2024-01-06T03:02:14;100603.78;;;8.85;92.29
64908;BME280;69061;52.236;5.188;2024-01-06T03:04:41;100602.66;;;8.86;92.63
64908;BME280;69061;52.236;5.188;2024-01-06T03:07:07;100603.88;;;8.92;93.18
64908;BME280;69061;52.236;5.188;2024-01-06T03:09:34;100614.47;;;8.92;90.96
64908;BME280;69061;52.236;5.188;2024-01-06T03:12:01;100602.00;;;8.93;93.07
64908;BME280;69061;52.236;5.188;2024-01-06T03:14:29;100606.53;;;8.92;92.03
64908;BME280;69061;52.236;5.188;2024-01-06T03:16:55;100618.59;;;8.90;91.73
64908;BME280;69061;52.236;5.188;2024-01-06T03:19:22;100611.09;;;8.96;91.53
64908;BME280;69061;52.236;5.188;2024-01-06T03:21:51;100623.22;;;8.93;91.52
64908;BME280;69061;52.236;5.188;2024-01-06T03:24:18;100621.59;;;8.88;90.75
64908;BME280;69061;52.236;5.188;2024-01-06T03:26:44;100626.91;;;8.88;91.62
64908;BME280;69061;52.236;5.188;2024-01-06T03:29:11;100624.63;;;8.87;91.90
64908;BME280;69061;52.236;5.188;2024-01-06T03:31:41;100633.38;;;8.91;92.40
64908;BME280;69061;52.236;5.188;2024-01-06T03:34:08;100634.84;;;8.88;91.30
64908;BME280;69061;52.236;5.188;2024-01-06T03:36:38;100644.28;;;8.86;91.75
64908;BME280;69061;52.236;5.188;2024-01-06T03:39:05;100645.75;;;8.83;92.09
64908;BME280;69061;52.236;5.188;2024-01-06T03:41:31;100647.28;;;8.84;91.55
64908;BME280;69061;52.236;5.188;2024-01-06T03:43:58;100647.72;;;8.86;91.08
64908;BME280;69061;52.236;5.188;2024-01-06T03:46:25;100647.72;;;8.86;92.46
64908;BME280;69061;52.236;5.188;2024-01-06T03:48:53;100661.00;;;8.90;92.45
64908;BME280;69061;52.236;5.188;2024-01-06T03:51:20;100664.66;;;8.82;92.15
64908;BME280;69061;52.236;5.188;2024-01-06T03:53:46;100665.44;;;8.82;92.04
64908;BME280;69061;52.236;5.188;2024-01-06T03:56:13;100669.56;;;8.80;91.83
64908;BME280;69061;52.236;5.188;2024-01-06T03:58:39;100676.72;;;8.79;93.01
64908;BME280;69061;52.236;5.188;2024-01-06T04:01:06;100669.97;;;8.82;93.85
64908;BME280;69061;52.236;5.188;2024-01-06T04:03:32;100683.66;;;8.87;92.70
64908;BME280;69061;52.236;5.188;2024-01-06T04:06:00;100685.22;;;8.88;93.13
64908;BME280;69061;52.236;5.188;2024-01-06T04:08:27;100686.75;;;8.89;92.35
64908;BME280;69061;52.236;5.188;2024-01-06T04:10:53;100694.22;;;8.84;91.11
64908;BME280;69061;52.236;5.188;2024-01-06T04:13:20;100694.22;;;8.84;91.16
64908;BME280;69061;52.236;5.188;2024-01-06T04:15:47;100700.28;;;8.84;90.95
64908;BME280;69061;52.236;5.188;2024-01-06T04:18:13;100698.06;;;8.86;90.60
64908;BME280;69061;52.236;5.188;2024-01-06T04:20:41;100694.59;;;8.82;91.48
64908;BME280;69061;52.236;5.188;2024-01-06T04:23:09;100694.88;;;8.77;90.40
64908;BME280;69061;52.236;5.188;2024-01-06T04:25:36;100713.00;;;8.75;91.98
64908;BME280;69061;52.236;5.188;2024-01-06T04:28:04;100708.41;;;8.72;91.88
64908;BME280;69061;52.236;5.188;2024-01-06T04:30:31;100706.59;;;8.76;93.20
64908;BME280;69061;52.236;5.188;2024-01-06T04:32:58;100711.06;;;8.72;92.46
64908;BME280;69061;52.236;5.188;2024-01-06T04:35:25;100712.97;;;8.71;91.88
64908;BME280;69061;52.236;5.188;2024-01-06T04:37:52;100719.31;;;8.67;90.62
64908;BME280;69061;52.236;5.188;2024-01-06T04:40:20;100709.81;;;8.66;90.58
64908;BME280;69061;52.236;5.188;2024-01-06T04:42:46;100715.53;;;8.68;93.01
64908;BME280;69061;52.236;5.188;2024-01-06T04:45:13;100718.25;;;8.71;93.53
64908;BME280;69061;52.236;5.188;2024-01-06T04:47:39;100717.94;;;8.76;94.62
64908;BME280;69061;52.236;5.188;2024-01-06T04:50:07;100710.63;;;8.70;91.71
64908;BME280;69061;52.236;5.188;2024-01-06T04:52:33;100714.28;;;8.62;92.05
64908;BME280;69061;52.236;5.188;2024-01-06T04:55:00;100721.84;;;8.59;93.10
64908;BME280;69061;52.236;5.188;2024-01-06T04:57:28;100715.00;;;8.58;95.03
64908;BME280;69061;52.236;5.188;2024-01-06T04:59:55;100721.03;;;8.59;94.93
64908;BME280;69061;52.236;5.188;2024-01-06T05:02:21;100724.13;;;8.61;94.42
64908;BME280;69061;52.236;5.188;2024-01-06T05:04:48;100729.00;;;8.59;93.83
64908;BME280;69061;52.236;5.188;2024-01-06T05:07:16;100736.09;;;8.55;93.23
64908;BME280;69061;52.236;5.188;2024-01-06T05:09:43;100731.63;;;8.59;94.52
64908;BME280;69061;52.236;5.188;2024-01-06T05:12:09;100733.19;;;8.60;95.31
64908;BME280;69061;52.236;5.188;2024-01-06T05:14:37;100743.78;;;8.60;93.94
64908;BME280;69061;52.236;5.188;2024-01-06T05:17:04;100740.78;;;8.62;92.87
64908;BME280;69061;52.236;5.188;2024-01-06T05:19:31;100747.63;;;8.63;93.31
64908;BME280;69061;52.236;5.188;2024-01-06T05:21:57;100740.78;;;8.62;93.70
64908;BME280;69061;52.236;5.188;2024-01-06T05:24:24;100742.75;;;8.65;94.40
64908;BME280;69061;52.236;5.188;2024-01-06T05:26:51;100751.31;;;8.58;91.97
64908;BME280;69061;52.236;5.188;2024-01-06T05:29:17;100751.66;;;8.56;92.74
64908;BME280;69061;52.236;5.188;2024-01-06T05:31:46;100758.09;;;8.55;92.86
64908;BME280;69061;52.236;5.188;2024-01-06T05:34:14;100760.38;;;8.57;93.55
64908;BME280;69061;52.236;5.188;2024-01-06T05:36:41;100767.63;;;8.60;93.69
64908;BME280;69061;52.236;5.188;2024-01-06T05:39:07;100769.50;;;8.59;95.24
64908;BME280;69061;52.236;5.188;2024-01-06T05:41:37;100772.44;;;8.54;93.84
64908;BME280;69061;52.236;5.188;2024-01-06T05:44:04;100765.59;;;8.53;93.68
64908;BME280;69061;52.236;5.188;2024-01-06T05:46:31;100773.16;;;8.51;93.76
64908;BME280;69061;52.236;5.188;2024-01-06T05:48:59;100784.50;;;8.52;94.06
64908;BME280;69061;52.236;5.188;2024-01-06T05:51:26;100785.97;;;8.49;93.19
64908;BME280;69061;52.236;5.188;2024-01-06T05:53:52;100783.31;;;8.49;94.14
64908;BME280;69061;52.236;5.188;2024-01-06T05:56:23;100794.69;;;8.50;92.55
64908;BME280;69061;52.236;5.188;2024-01-06T05:58:51;100793.16;;;8.49;91.86
64908;BME280;69061;52.236;5.188;2024-01-06T06:01:18;100800.59;;;8.43;91.92
64908;BME280;69061;52.236;5.188;2024-01-06T06:03:44;100800.84;;;8.38;92.10
64908;BME280;69061;52.236;5.188;2024-01-06T06:06:12;100800.41;;;8.36;92.09
64908;BME280;69061;52.236;5.188;2024-01-06T06:08:41;100809.19;;;8.40;93.48
64908;BME280;69061;52.236;5.188;2024-01-06T06:11:08;100806.31;;;8.45;93.65
64908;BME280;69061;52.236;5.188;2024-01-06T06:13:37;100811.59;;;8.45;94.30
64908;BME280;69061;52.236;5.188;2024-01-06T06:16:04;100812.97;;;8.39;91.65
64908;BME280;69061;52.236;5.188;2024-01-06T06:18:31;100812.28;;;8.42;93.23
64908;BME280;69061;52.236;5.188;2024-01-06T06:20:58;100823.03;;;8.49;94.24
64908;BME280;69061;52.236;5.188;2024-01-06T06:23:26;100834.47;;;8.53;93.68
64908;BME280;69061;52.236;5.188;2024-01-06T06:25:53;100832.31;;;8.59;92.75
64908;BME280;69061;52.236;5.188;2024-01-06T06:28:19;100844.09;;;8.62;92.25
64908;BME280;69061;52.236;5.188;2024-01-06T06:30:46;100840.78;;;8.65;92.92
64908;BME280;69061;52.236;5.188;2024-01-06T06:33:14;100850.03;;;8.74;91.75
64908;BME280;69061;52.236;5.188;2024-01-06T06:35:41;100862.50;;;8.74;90.10
64908;BME280;69061;52.236;5.188;2024-01-06T06:38:07;100857.63;;;8.76;89.50
64908;BME280;69061;52.236;5.188;2024-01-06T06:40:35;100861.53;;;8.82;90.46
64908;BME280;69061;52.236;5.188;2024-01-06T06:43:02;100862.31;;;8.83;90.47
64908;BME280;69061;52.236;5.188;2024-01-06T06:45:32;100862.31;;;8.83;89.22
64908;BME280;69061;52.236;5.188;2024-01-06T06:47:58;100864.94;;;8.83;88.39
64908;BME280;69061;52.236;5.188;2024-01-06T06:50:25;100874.84;;;8.86;90.21
64908;BME280;69061;52.236;5.188;2024-01-06T06:52:51;100879.78;;;8.87;89.95
64908;BME280;69061;52.236;5.188;2024-01-06T06:55:18;100887.91;;;8.95;89.37
64908;BME280;69061;52.236;5.188;2024-01-06T06:57:46;100879.94;;;8.95;89.49
64908;BME280;69061;52.236;5.188;2024-01-06T07:00:13;100888.31;;;8.97;90.17
64908;BME280;69061;52.236;5.188;2024-01-06T07:02:40;100885.25;;;8.95;88.29
64908;BME280;69061;52.236;5.188;2024-01-06T07:05:07;100889.41;;;8.96;88.78
64908;BME280;69061;52.236;5.188;2024-01-06T07:07:34;100898.91;;;8.97;89.14
64908;BME280;69061;52.236;5.188;2024-01-06T07:10:00;100902.34;;;8.97;89.36
64908;BME280;69061;52.236;5.188;2024-01-06T07:12:26;100916.72;;;8.96;88.70
64908;BME280;69061;52.236;5.188;2024-01-06T07:14:54;100905.00;;;8.97;89.21
64908;BME280;69061;52.236;5.188;2024-01-06T07:19:50;100916.72;;;8.96;88.90
64908;BME280;69061;52.236;5.188;2024-01-06T07:22:17;100918.88;;;8.90;88.09
64908;BME280;69061;52.236;5.188;2024-01-06T07:24:44;100926.47;;;8.92;87.80
64908;BME280;69061;52.236;5.188;2024-01-06T07:27:11;100938.72;;;8.81;87.31
64908;BME280;69061;52.236;5.188;2024-01-06T07:29:38;100936.03;;;8.77;88.84
64908;BME280;69061;52.236;5.188;2024-01-06T07:32:06;100937.81;;;8.73;86.67
64908;BME280;69061;52.236;5.188;2024-01-06T07:34:33;100938.66;;;8.77;88.11
64908;BME280;69061;52.236;5.188;2024-01-06T07:37:00;100950.13;;;8.81;88.51
64908;BME280;69061;52.236;5.188;2024-01-06T07:39:26;100948.22;;;8.82;87.89
64908;BME280;69061;52.236;5.188;2024-01-06T07:41:53;100957.72;;;8.83;87.82
64908;BME280;69061;52.236;5.188;2024-01-06T07:44:20;100952.50;;;8.86;88.77
64908;BME280;69061;52.236;5.188;2024-01-06T07:46:50;100961.56;;;8.85;87.78
64908;BME280;69061;52.236;5.188;2024-01-06T07:49:19;100954.72;;;8.84;88.04
64908;BME280;69061;52.236;5.188;2024-01-06T07:51:46;100962.31;;;8.86;87.84
64908;BME280;69061;52.236;5.188;2024-01-06T07:54:13;100968.41;;;8.86;88.77
64908;BME280;69061;52.236;5.188;2024-01-06T07:56:39;100965.41;;;8.88;89.50
64908;BME280;69061;52.236;5.188;2024-01-06T07:59:06;100971.88;;;8.90;88.52
64908;BME280;69061;52.236;5.188;2024-01-06T08:01:33;100973.00;;;8.89;88.33
64908;BME280;69061;52.236;5.188;2024-01-06T08:03:59;100981.69;;;8.90;87.67
64908;BME280;69061;52.236;5.188;2024-01-06T08:06:28;100985.41;;;8.85;86.84
64908;BME280;69061;52.236;5.188;2024-01-06T08:08:54;100982.75;;;8.85;87.07
64908;BME280;69061;52.236;5.188;2024-01-06T08:11:21;101002.69;;;8.79;86.40
64908;BME280;69061;52.236;5.188;2024-01-06T08:13:48;100994.22;;;8.73;86.72
64908;BME280;69061;52.236;5.188;2024-01-06T08:16:14;101003.72;;;8.74;85.18
64908;BME280;69061;52.236;5.188;2024-01-06T08:18:41;101007.97;;;8.79;86.18
64908;BME280;69061;52.236;5.188;2024-01-06T08:21:08;101010.81;;;8.86;87.73
64908;BME280;69061;52.236;5.188;2024-01-06T08:23:36;101014.28;;;8.90;86.68
64908;BME280;69061;52.236;5.188;2024-01-06T08:26:03;101021.53;;;8.93;85.82
64908;BME280;69061;52.236;5.188;2024-01-06T08:28:30;101018.91;;;8.93;86.08
64908;BME280;69061;52.236;5.188;2024-01-06T08:30:57;101014.44;;;8.98;86.02
64908;BME280;69061;52.236;5.188;2024-01-06T08:33:23;101019.47;;;9.03;86.22
64908;BME280;69061;52.236;5.188;2024-01-06T08:35:50;101022.53;;;9.05;86.42
64908;BME280;69061;52.236;5.188;2024-01-06T08:38:16;101023.31;;;9.05;85.05
64908;BME280;69061;52.236;5.188;2024-01-06T08:40:45;101027.16;;;9.08;86.15
64908;BME280;69061;52.236;5.188;2024-01-06T08:43:13;101032.03;;;9.06;84.17
64908;BME280;69061;52.236;5.188;2024-01-06T08:45:40;101035.59;;;9.14;84.76
64908;BME280;69061;52.236;5.188;2024-01-06T08:48:07;101025.06;;;9.17;84.88
64908;BME280;69061;52.236;5.188;2024-01-06T08:50:34;101038.13;;;9.26;84.99
64908;BME280;69061;52.236;5.188;2024-01-06T08:53:00;101039.31;;;9.29;84.15
64908;BME280;69061;52.236;5.188;2024-01-06T08:55:27;101050.63;;;9.25;82.59
64908;BME280;69061;52.236;5.188;2024-01-06T08:57:58;101050.19;;;9.23;83.79
64908;BME280;69061;52.236;5.188;2024-01-06T09:00:25;101049.50;;;9.26;83.55
64908;BME280;69061;52.236;5.188;2024-01-06T09:02:51;101052.84;;;9.23;83.63
64908;BME280;69061;52.236;5.188;2024-01-06T09:05:18;101051.78;;;9.28;83.78
64908;BME280;69061;52.236;5.188;2024-01-06T09:07:45;101063.25;;;9.32;82.66
64908;BME280;69061;52.236;5.188;2024-01-06T09:10:15;101070.03;;;9.30;83.62
64908;BME280;69061;52.236;5.188;2024-01-06T09:12:42;101072.25;;;9.27;82.12
64908;BME280;69061;52.236;5.188;2024-01-06T09:15:10;101084.25;;;9.21;81.08
64908;BME280;69061;52.236;5.188;2024-01-06T09:17:37;101082.63;;;9.17;81.90
64908;BME280;69061;52.236;5.188;2024-01-06T09:20:04;101091.28;;;9.14;80.07
64908;BME280;69061;52.236;5.188;2024-01-06T09:22:31;101087.69;;;9.06;80.45
64908;BME280;69061;52.236;5.188;2024-01-06T09:24:58;101099.63;;;8.96;79.92
64908;BME280;69061;52.236;5.188;2024-01-06T09:27:24;101095.00;;;8.93;79.52
64908;BME280;69061;52.236;5.188;2024-01-06T09:29:51;101107.72;;;8.87;79.88
64908;BME280;69061;52.236;5.188;2024-01-06T09:32:19;101111.06;;;8.84;80.98
64908;BME280;69061;52.236;5.188;2024-01-06T09:34:48;101106.88;;;8.83;81.35
64908;BME280;69061;52.236;5.188;2024-01-06T09:37:14;101108.44;;;8.84;81.60
64908;BME280;69061;52.236;5.188;2024-01-06T09:39:41;101112.19;;;8.83;81.74
64908;BME280;69061;52.236;5.188;2024-01-06T09:42:08;101110.72;;;8.86;83.06
64908;BME280;69061;52.236;5.188;2024-01-06T09:44:36;101117.06;;;8.81;82.57
64908;BME280;69061;52.236;5.188;2024-01-06T09:47:03;101117.06;;;8.81;82.76
64908;BME280;69061;52.236;5.188;2024-01-06T09:49:32;101128.09;;;8.83;82.88
64908;BME280;69061;52.236;5.188;2024-01-06T09:52:01;101129.63;;;8.84;82.21
64908;BME280;69061;52.236;5.188;2024-01-06T09:54:30;101131.94;;;8.86;82.86
64908;BME280;69061;52.236;5.188;2024-01-06T09:57:00;101142.88;;;8.84;82.78
64908;BME280;69061;52.236;5.188;2024-01-06T09:59:28;101143.31;;;8.86;83.21
64908;BME280;69061;52.236;5.188;2024-01-06T10:02:00;101139.28;;;8.92;82.73
64908;BME280;69061;52.236;5.188;2024-01-06T10:04:27;101145.03;;;8.95;81.80
64908;BME280;69061;52.236;5.188;2024-01-06T10:06:55;101149.63;;;8.98;82.02
64908;BME280;69061;52.236;5.188;2024-01-06T10:09:26;101155.03;;;9.01;82.30
64908;BME280;69061;52.236;5.188;2024-01-06T10:11:55;101160.41;;;9.05;80.16
64908;BME280;69061;52.236;5.188;2024-01-06T10:14:23;101168.59;;;9.00;80.31
64908;BME280;69061;52.236;5.188;2024-01-06T10:16:50;101157.25;;;8.99;81.27
64908;BME280;69061;52.236;5.188;2024-01-06T10:19:16;101166.66;;;8.97;80.56
64908;BME280;69061;52.236;5.188;2024-01-06T10:21:43;101169.47;;;9.04;82.08
64908;BME280;69061;52.236;5.188;2024-01-06T10:24:11;101171.00;;;9.05;81.75
64908;BME280;69061;52.236;5.188;2024-01-06T10:26:39;101165.78;;;9.08;82.25
64908;BME280;69061;52.236;5.188;2024-01-06T10:29:06;101175.34;;;9.13;82.78
64908;BME280;69061;52.236;5.188;2024-01-06T10:31:32;101170.06;;;9.13;81.04
64908;BME280;69061;52.236;5.188;2024-01-06T10:34:00;101174.25;;;9.14;81.17
64908;BME280;69061;52.236;5.188;2024-01-06T10:36:26;101182.09;;;9.10;79.99
64908;BME280;69061;52.236;5.188;2024-01-06T10:38:55;101181.53;;;9.01;79.65
64908;BME280;69061;52.236;5.188;2024-01-06T10:41:24;101187.59;;;9.02;79.47
64908;BME280;69061;52.236;5.188;2024-01-06T10:43:51;101193.59;;;8.99;79.70
64908;BME280;69061;52.236;5.188;2024-01-06T10:46:18;101194.59;;;8.94;79.33
64908;BME280;69061;52.236;5.188;2024-01-06T10:48:45;101194.19;;;8.92;79.78
64908;BME280;69061;52.236;5.188;2024-01-06T10:51:13;101191.88;;;8.90;80.35
64908;BME280;69061;52.236;5.188;2024-01-06T10:53:41;101193.41;;;8.91;80.54
64908;BME280;69061;52.236;5.188;2024-01-06T10:56:08;101196.16;;;8.95;80.52
64908;BME280;69061;52.236;5.188;2024-01-06T10:58:37;101201.91;;;8.97;81.12
64908;BME280;69061;52.236;5.188;2024-01-06T11:01:08;101206.00;;;8.95;80.47
64908;BME280;69061;52.236;5.188;2024-01-06T11:03:36;101207.50;;;8.96;81.85
64908;BME280;69061;52.236;5.188;2024-01-06T11:06:04;101202.22;;;8.96;81.63
64908;BME280;69061;52.236;5.188;2024-01-06T11:08:33;101205.72;;;9.00;81.78
64908;BME280;69061;52.236;5.188;2024-01-06T11:11:04;101209.56;;;9.02;81.65
64908;BME280;69061;52.236;5.188;2024-01-06T11:13:31;101210.53;;;9.10;81.68
64908;BME280;69061;52.236;5.188;2024-01-06T11:15:58;101207.88;;;9.10;80.17
64908;BME280;69061;52.236;5.188;2024-01-06T11:18:33;101212.47;;;9.13;79.93
64908;BME280;69061;52.236;5.188;2024-01-06T11:21:19;101204.81;;;9.08;80.83
64908;BME280;69061;52.236;5.188;2024-01-06T11:24:20;101210.41;;;9.06;81.52
64908;BME280;69061;52.236;5.188;2024-01-06T11:26:50;101217.22;;;9.04;79.53
64908;BME280;69061;52.236;5.188;2024-01-06T11:29:17;101218.31;;;9.03;80.54
64908;BME280;69061;52.236;5.188;2024-01-06T11:32:20;101226.06;;;8.96;79.58
64908;BME280;69061;52.236;5.188;2024-01-06T11:34:48;101223.63;;;9.03;80.63
64908;BME280;69061;52.236;5.188;2024-01-06T11:37:17;101231.72;;;9.10;81.10
64908;BME280;69061;52.236;5.188;2024-01-06T11:39:44;101231.91;;;9.17;80.86
64908;BME280;69061;52.236;5.188;2024-01-06T11:42:11;101227.38;;;9.18;79.09
64908;BME280;69061;52.236;5.188;2024-01-06T11:44:38;101228.47;;;9.17;77.21
64908;BME280;69061;52.236;5.188;2024-01-06T11:47:08;101221.56;;;9.12;76.76
64908;BME280;69061;52.236;5.188;2024-01-06T11:49:37;101229.53;;;9.12;77.79
64908;BME280;69061;52.236;5.188;2024-01-06T11:52:04;101229.69;;;9.19;79.28
64908;BME280;69061;52.236;5.188;2024-01-06T11:54:32;101218.38;;;9.22;78.27
64908;BME280;69061;52.236;5.188;2024-01-06T11:56:59;101227.63;;;9.29;77.83
64908;BME280;69061;52.236;5.188;2024-01-06T11:59:25;101223.88;;;9.30;76.66
64908;BME280;69061;52.236;5.188;2024-01-06T12:01:52;101230.34;;;9.32;76.79
64908;BME280;69061;52.236;5.188;2024-01-06T12:04:20;101217.88;;;9.33;77.06
64908;BME280;69061;52.236;5.188;2024-01-06T12:06:51;101224.03;;;9.37;77.43
64908;BME280;69061;52.236;5.188;2024-01-06T12:09:19;101224.72;;;9.34;76.39
64908;BME280;69061;52.236;5.188;2024-01-06T12:11:46;101225.47;;;9.34;76.60
64908;BME280;69061;52.236;5.188;2024-01-06T12:14:13;101228.63;;;9.40;78.23
64908;BME280;69061;52.236;5.188;2024-01-06T12:16:43;101236.19;;;9.38;76.95
64908;BME280;69061;52.236;5.188;2024-01-06T12:19:10;101231.63;;;9.38;77.70
64908;BME280;69061;52.236;5.188;2024-01-06T12:21:38;101227.09;;;9.39;77.84
64908;BME280;69061;52.236;5.188;2024-01-06T12:24:13;101238.84;;;9.38;77.16
64908;BME280;69061;52.236;5.188;2024-01-06T12:26:42;101236.59;;;9.40;78.68
64908;BME280;69061;52.236;5.188;2024-01-06T12:29:09;101235.75;;;9.36;78.88
64908;BME280;69061;52.236;5.188;2024-01-06T12:31:35;101234.97;;;9.35;78.28
64908;BME280;69061;52.236;5.188;2024-01-06T12:34:02;101236.84;;;9.35;79.08
64908;BME280;69061;52.236;5.188;2024-01-06T12:36:32;101237.13;;;9.30;79.49
64908;BME280;69061;52.236;5.188;2024-01-06T12:39:01;101237.88;;;9.30;78.13
64908;BME280;69061;52.236;5.188;2024-01-06T12:41:29;101245.75;;;9.26;78.75
64908;BME280;69061;52.236;5.188;2024-01-06T12:43:55;101240.03;;;9.24;77.01
64908;BME280;69061;52.236;5.188;2024-01-06T12:46:22;101248.00;;;9.24;78.19
64908;BME280;69061;52.236;5.188;2024-01-06T12:48:49;101244.50;;;9.20;78.82
64908;BME280;69061;52.236;5.188;2024-01-06T12:51:16;101255.34;;;9.15;76.93
64908;BME280;69061;52.236;5.188;2024-01-06T12:53:42;101258.00;;;9.15;78.08
64908;BME280;69061;52.236;5.188;2024-01-06T12:56:11;101256.03;;;9.12;76.55
64908;BME280;69061;52.236;5.188;2024-01-06T12:58:39;101254.59;;;9.15;78.08
64908;BME280;69061;52.236;5.188;2024-01-06T13:01:06;101261.41;;;9.16;77.49
64908;BME280;69061;52.236;5.188;2024-01-06T13:03:34;101254.50;;;9.11;77.47